sensor_id;sensor_type;location;lat;lon;timestamp;P1;durP1;ratioP1;P2;durP2;ratioP2
26042;SDS011;13818;52.156;5.382;2024-02-16T00:01:49;1.92;;;1.00;;
26042;SDS011;13818;52.156;5.382;2024-02-16T00:04:15;3.85;;;1.33;;
26042;SDS011;13818;52.156;5.382;2024-02-16T00:06:42;3.13;;;1.70;;
26042;SDS011;13818;52.156;5.382;2024-02-16T00:09:09;2.45;;;1.13;;
26042;SDS011;13818;52.156;5.382;2024-02-16T00:11:36;3.20;;;1.45;;
26042;SDS011;13818;52.156;5.382;2024-02-16T00:14:02;1.85;;;1.45;;
26042;SDS011;13818;52.156;5.382;2024-02-16T00:16:30;4.97;;;2.22;;
26042;SDS011;13818;52.156;5.382;2024-02-16T00:21:24;4.70;;;1.75;;
26042;SDS011;13818;52.156;5.382;2024-02-16T00:23:50;2.70;;;1.20;;
26042;SDS011;13818;52.156;5.382;2024-02-16T00:26:17;2.42;;;0.80;;
26042;SDS011;13818;52.156;5.382;2024-02-16T00:28:44;1.73;;;0.98;;
26042;SDS011;13818;52.156;5.382;2024-02-16T00:31:11;2.75;;;1.40;;
26042;SDS011;13818;52.156;5.382;2024-02-16T00:33:39;2.92;;;1.27;;
26042;SDS011;13818;52.156;5.382;2024-02-16T00:36:06;2.25;;;1.25;;
26042;SDS011;13818;52.156;5.382;2024-02-16T00:38:35;2.35;;;1.45;;
26042;SDS011;13818;52.156;5.382;2024-02-16T00:41:01;3.67;;;1.80;;
26042;SDS011;13818;52.156;5.382;2024-02-16T00:43:28;3.10;;;1.25;;
26042;SDS011;13818;52.156;5.382;2024-02-16T00:45:54;1.73;;;1.17;;
26042;SDS011;13818;52.156;5.382;2024-02-16T00:48:21;5.13;;;1.63;;
26042;SDS011;13818;52.156;5.382;2024-02-16T00:50:49;2.83;;;1.38;;
26042;SDS011;13818;52.156;5.382;2024-02-16T00:53:16;7.15;;;1.77;;
26042;SDS011;13818;52.156;5.382;2024-02-16T00:55:44;3.67;;;1.50;;
26042;SDS011;13818;52.156;5.382;2024-02-16T00:58:11;5.72;;;1.40;;
26042;SDS011;13818;52.156;5.382;2024-02-16T01:00:38;2.22;;;1.58;;
26042;SDS011;13818;52.156;5.382;2024-02-16T01:03:04;3.28;;;1.35;;
26042;SDS011;13818;52.156;5.382;2024-02-16T01:05:31;6.57;;;1.35;;
26042;SDS011;13818;52.156;5.382;2024-02-16T01:07:59;2.63;;;1.33;;
26042;SDS011;13818;52.156;5.382;2024-02-16T01:10:25;2.13;;;1.17;;
26042;SDS011;13818;52.156;5.382;2024-02-16T01:12:52;1.23;;;1.00;;
26042;SDS011;13818;52.156;5.382;2024-02-16T01:15:21;2.38;;;1.52;;
26042;SDS011;13818;52.156;5.382;2024-02-16T01:17:47;2.78;;;1.10;;
26042;SDS011;13818;52.156;5.382;2024-02-16T01:20:14;3.97;;;1.38;;
26042;SDS011;13818;52.156;5.382;2024-02-16T01:22:41;2.30;;;0.90;;
26042;SDS011;13818;52.156;5.382;2024-02-16T01:25:09;2.63;;;1.10;;
26042;SDS011;13818;52.156;5.382;2024-02-16T01:27:36;1.73;;;0.93;;
26042;SDS011;13818;52.156;5.382;2024-02-16T01:30:03;6.43;;;0.93;;
26042;SDS011;13818;52.156;5.382;2024-02-16T01:34:59;1.98;;;0.93;;
26042;SDS011;13818;52.156;5.382;2024-02-16T01:37:26;3.35;;;1.40;;
26042;SDS011;13818;52.156;5.382;2024-02-16T01:39:53;1.58;;;1.17;;
26042;SDS011;13818;52.156;5.382;2024-02-16T01:42:21;2.47;;;1.63;;
26042;SDS011;13818;52.156;5.382;2024-02-16T01:44:47;2.17;;;1.02;;
26042;SDS011;13818;52.156;5.382;2024-02-16T01:47:14;3.80;;;1.05;;
26042;SDS011;13818;52.156;5.382;2024-02-16T01:49:41;3.22;;;1.58;;
26042;SDS011;13818;52.156;5.382;2024-02-16T01:52:08;2.58;;;1.30;;
26042;SDS011;13818;52.156;5.382;2024-02-16T01:54:35;1.83;;;1.27;;
26042;SDS011;13818;52.156;5.382;2024-02-16T01:57:01;3.50;;;1.27;;
26042;SDS011;13818;52.156;5.382;2024-02-16T01:59:30;2.75;;;1.30;;
26042;SDS011;13818;52.156;5.382;2024-02-16T02:01:58;6.55;;;1.50;;
26042;SDS011;13818;52.156;5.382;2024-02-16T02:04:25;2.15;;;1.27;;
26042;SDS011;13818;52.156;5.382;2024-02-16T02:06:52;1.85;;;0.93;;
26042;SDS011;13818;52.156;5.382;2024-02-16T02:09:20;2.08;;;1.60;;
26042;SDS011;13818;52.156;5.382;2024-02-16T02:11:48;3.75;;;1.38;;
26042;SDS011;13818;52.156;5.382;2024-02-16T02:14:16;1.45;;;0.88;;
26042;SDS011;13818;52.156;5.382;2024-02-16T02:16:44;2.22;;;1.05;;
26042;SDS011;13818;52.156;5.382;2024-02-16T02:19:11;2.45;;;1.27;;
26042;SDS011;13818;52.156;5.382;2024-02-16T02:21:37;3.03;;;1.33;;
26042;SDS011;13818;52.156;5.382;2024-02-16T02:24:06;1.25;;;1.00;;
26042;SDS011;13818;52.156;5.382;2024-02-16T02:26:33;3.33;;;1.15;;
26042;SDS011;13818;52.156;5.382;2024-02-16T02:29:00;1.88;;;1.10;;
26042;SDS011;13818;52.156;5.382;2024-02-16T02:31:26;1.92;;;1.30;;
26042;SDS011;13818;52.156;5.382;2024-02-16T02:33:53;4.07;;;1.67;;
26042;SDS011;13818;52.156;5.382;2024-02-16T02:36:20;3.40;;;1.23;;
26042;SDS011;13818;52.156;5.382;2024-02-16T02:38:46;2.38;;;1.17;;
26042;SDS011;13818;52.156;5.382;2024-02-16T02:41:15;4.38;;;1.50;;
26042;SDS011;13818;52.156;5.382;2024-02-16T02:43:44;1.88;;;1.15;;
26042;SDS011;13818;52.156;5.382;2024-02-16T02:46:14;1.52;;;1.08;;
26042;SDS011;13818;52.156;5.382;2024-02-16T02:48:42;1.98;;;1.20;;
26042;SDS011;13818;52.156;5.382;2024-02-16T02:51:09;5.53;;;1.35;;
26042;SDS011;13818;52.156;5.382;2024-02-16T02:53:36;3.17;;;1.67;;
26042;SDS011;13818;52.156;5.382;2024-02-16T02:56:03;1.90;;;1.35;;
26042;SDS011;13818;52.156;5.382;2024-02-16T02:58:32;1.63;;;1.05;;
26042;SDS011;13818;52.156;5.382;2024-02-16T03:00:58;2.13;;;1.13;;
26042;SDS011;13818;52.156;5.382;2024-02-16T03:03:25;2.80;;;1.02;;
26042;SDS011;13818;52.156;5.382;2024-02-16T03:05:51;2.35;;;1.20;;
26042;SDS011;13818;52.156;5.382;2024-02-16T03:08:18;7.72;;;1.55;;
26042;SDS011;13818;52.156;5.382;2024-02-16T03:10:45;5.85;;;1.48;;
26042;SDS011;13818;52.156;5.382;2024-02-16T03:13:11;2.22;;;1.55;;
26042;SDS011;13818;52.156;5.382;2024-02-16T03:15:40;2.25;;;1.63;;
26042;SDS011;13818;52.156;5.382;2024-02-16T03:18:07;2.05;;;1.30;;
26042;SDS011;13818;52.156;5.382;2024-02-16T03:20:34;3.00;;;1.30;;
26042;SDS011;13818;52.156;5.382;2024-02-16T03:23:01;2.42;;;1.33;;
26042;SDS011;13818;52.156;5.382;2024-02-16T03:25:27;1.77;;;1.38;;
26042;SDS011;13818;52.156;5.382;2024-02-16T03:27:54;2.88;;;1.40;;
26042;SDS011;13818;52.156;5.382;2024-02-16T03:30:21;2.08;;;1.42;;
26042;SDS011;13818;52.156;5.382;2024-02-16T03:32:49;4.70;;;1.50;;
26042;SDS011;13818;52.156;5.382;2024-02-16T03:35:17;4.45;;;1.58;;
26042;SDS011;13818;52.156;5.382;2024-02-16T03:37:43;4.53;;;1.15;;
26042;SDS011;13818;52.156;5.382;2024-02-16T03:40:10;2.28;;;0.88;;
26042;SDS011;13818;52.156;5.382;2024-02-16T03:42:37;8.32;;;1.27;;
26042;SDS011;13818;52.156;5.382;2024-02-16T03:45:05;2.35;;;1.50;;
26042;SDS011;13818;52.156;5.382;2024-02-16T03:47:32;4.97;;;1.40;;
26042;SDS011;13818;52.156;5.382;2024-02-16T03:50:00;4.55;;;1.45;;
26042;SDS011;13818;52.156;5.382;2024-02-16T03:52:27;7.05;;;2.10;;
26042;SDS011;13818;52.156;5.382;2024-02-16T03:54:54;1.52;;;1.10;;
26042;SDS011;13818;52.156;5.382;2024-02-16T03:57:20;2.25;;;1.30;;
26042;SDS011;13818;52.156;5.382;2024-02-16T03:59:47;1.48;;;0.95;;
26042;SDS011;13818;52.156;5.382;2024-02-16T04:02:14;1.77;;;1.17;;
26042;SDS011;13818;52.156;5.382;2024-02-16T04:04:40;4.75;;;1.63;;
26042;SDS011;13818;52.156;5.382;2024-02-16T04:07:08;1.67;;;1.13;;
26042;SDS011;13818;52.156;5.382;2024-02-16T04:09:35;2.67;;;2.15;;
26042;SDS011;13818;52.156;5.382;2024-02-16T04:12:02;2.22;;;1.52;;
26042;SDS011;13818;52.156;5.382;2024-02-16T04:14:29;2.47;;;1.20;;
26042;SDS011;13818;52.156;5.382;2024-02-16T04:16:56;2.70;;;1.13;;
26042;SDS011;13818;52.156;5.382;2024-02-16T04:19:23;1.63;;;1.10;;
26042;SDS011;13818;52.156;5.382;2024-02-16T04:21:49;3.53;;;1.58;;
26042;SDS011;13818;52.156;5.382;2024-02-16T04:24:17;1.98;;;0.93;;
26042;SDS011;13818;52.156;5.382;2024-02-16T04:26:44;2.55;;;1.65;;
26042;SDS011;13818;52.156;5.382;2024-02-16T04:29:10;4.30;;;1.48;;
26042;SDS011;13818;52.156;5.382;2024-02-16T04:31:38;1.75;;;1.00;;
26042;SDS011;13818;52.156;5.382;2024-02-16T04:34:05;1.88;;;1.08;;
26042;SDS011;13818;52.156;5.382;2024-02-16T04:36:32;2.45;;;1.00;;
26042;SDS011;13818;52.156;5.382;2024-02-16T04:38:58;3.53;;;1.52;;
26042;SDS011;13818;52.156;5.382;2024-02-16T04:41:26;3.83;;;1.20;;
26042;SDS011;13818;52.156;5.382;2024-02-16T04:43:53;3.85;;;1.33;;
26042;SDS011;13818;52.156;5.382;2024-02-16T04:46:19;2.00;;;1.50;;
26042;SDS011;13818;52.156;5.382;2024-02-16T04:48:46;4.38;;;1.80;;
26042;SDS011;13818;52.156;5.382;2024-02-16T04:51:12;3.53;;;1.50;;
26042;SDS011;13818;52.156;5.382;2024-02-16T04:53:39;2.45;;;1.45;;
26042;SDS011;13818;52.156;5.382;2024-02-16T04:56:06;1.45;;;1.15;;
26042;SDS011;13818;52.156;5.382;2024-02-16T04:58:34;7.47;;;1.40;;
26042;SDS011;13818;52.156;5.382;2024-02-16T05:03:28;1.65;;;0.85;;
26042;SDS011;13818;52.156;5.382;2024-02-16T05:05:54;1.83;;;1.13;;
26042;SDS011;13818;52.156;5.382;2024-02-16T05:08:22;2.10;;;1.40;;
26042;SDS011;13818;52.156;5.382;2024-02-16T05:10:50;3.55;;;1.80;;
26042;SDS011;13818;52.156;5.382;2024-02-16T05:13:17;2.63;;;1.58;;
26042;SDS011;13818;52.156;5.382;2024-02-16T05:15:45;2.45;;;1.45;;
26042;SDS011;13818;52.156;5.382;2024-02-16T05:18:13;4.03;;;1.38;;
26042;SDS011;13818;52.156;5.382;2024-02-16T05:20:40;1.77;;;1.20;;
26042;SDS011;13818;52.156;5.382;2024-02-16T05:23:07;3.17;;;1.40;;
26042;SDS011;13818;52.156;5.382;2024-02-16T05:28:02;1.65;;;0.80;;
26042;SDS011;13818;52.156;5.382;2024-02-16T05:30:29;1.33;;;1.02;;
26042;SDS011;13818;52.156;5.382;2024-02-16T05:32:58;4.00;;;1.08;;
26042;SDS011;13818;52.156;5.382;2024-02-16T05:35:24;3.38;;;1.88;;
26042;SDS011;13818;52.156;5.382;2024-02-16T05:37:54;1.58;;;0.98;;
26042;SDS011;13818;52.156;5.382;2024-02-16T05:40:21;3.08;;;1.10;;
26042;SDS011;13818;52.156;5.382;2024-02-16T05:42:50;2.30;;;1.58;;
26042;SDS011;13818;52.156;5.382;2024-02-16T05:45:17;2.75;;;1.30;;
26042;SDS011;13818;52.156;5.382;2024-02-16T05:47:45;4.60;;;1.20;;
26042;SDS011;13818;52.156;5.382;2024-02-16T05:50:13;2.17;;;1.00;;
26042;SDS011;13818;52.156;5.382;2024-02-16T05:57:34;2.65;;;1.20;;
26042;SDS011;13818;52.156;5.382;2024-02-16T06:00:01;2.22;;;1.00;;
26042;SDS011;13818;52.156;5.382;2024-02-16T06:02:29;1.88;;;1.45;;
26042;SDS011;13818;52.156;5.382;2024-02-16T06:04:55;2.60;;;1.17;;
26042;SDS011;13818;52.156;5.382;2024-02-16T06:07:24;3.45;;;1.25;;
26042;SDS011;13818;52.156;5.382;2024-02-16T06:09:50;3.88;;;1.10;;
26042;SDS011;13818;52.156;5.382;2024-02-16T06:12:19;2.17;;;1.05;;
26042;SDS011;13818;52.156;5.382;2024-02-16T06:14:45;3.05;;;1.13;;
26042;SDS011;13818;52.156;5.382;2024-02-16T06:17:13;4.03;;;1.75;;
26042;SDS011;13818;52.156;5.382;2024-02-16T06:19:41;2.40;;;1.23;;
26042;SDS011;13818;52.156;5.382;2024-02-16T06:22:08;5.20;;;1.42;;
26042;SDS011;13818;52.156;5.382;2024-02-16T06:24:36;4.07;;;1.42;;
26042;SDS011;13818;52.156;5.382;2024-02-16T06:27:03;3.13;;;1.13;;
26042;SDS011;13818;52.156;5.382;2024-02-16T06:29:30;3.03;;;1.17;;
26042;SDS011;13818;52.156;5.382;2024-02-16T06:31:57;3.15;;;1.30;;
26042;SDS011;13818;52.156;5.382;2024-02-16T06:34:23;5.35;;;1.38;;
26042;SDS011;13818;52.156;5.382;2024-02-16T06:36:50;2.15;;;1.35;;
26042;SDS011;13818;52.156;5.382;2024-02-16T06:39:17;3.03;;;1.23;;
26042;SDS011;13818;52.156;5.382;2024-02-16T06:41:47;3.00;;;1.40;;
26042;SDS011;13818;52.156;5.382;2024-02-16T06:44:14;3.58;;;1.40;;
26042;SDS011;13818;52.156;5.382;2024-02-16T06:46:41;3.10;;;1.50;;
26042;SDS011;13818;52.156;5.382;2024-02-16T06:49:08;3.38;;;1.45;;
26042;SDS011;13818;52.156;5.382;2024-02-16T06:51:35;3.90;;;1.92;;
26042;SDS011;13818;52.156;5.382;2024-02-16T06:54:02;4.18;;;1.70;;
26042;SDS011;13818;52.156;5.382;2024-02-16T06:56:32;1.67;;;1.15;;
26042;SDS011;13818;52.156;5.382;2024-02-16T06:59:02;4.32;;;1.00;;
26042;SDS011;13818;52.156;5.382;2024-02-16T07:01:29;2.88;;;1.30;;
26042;SDS011;13818;52.156;5.382;2024-02-16T07:03:55;2.80;;;1.50;;
26042;SDS011;13818;52.156;5.382;2024-02-16T07:06:22;3.83;;;1.40;;
26042;SDS011;13818;52.156;5.382;2024-02-16T07:08:48;6.45;;;1.48;;
26042;SDS011;13818;52.156;5.382;2024-02-16T07:11:15;2.17;;;1.30;;
26042;SDS011;13818;52.156;5.382;2024-02-16T07:13:43;4.45;;;1.45;;
26042;SDS011;13818;52.156;5.382;2024-02-16T07:16:10;5.75;;;1.60;;
26042;SDS011;13818;52.156;5.382;2024-02-16T07:18:37;2.40;;;1.60;;
26042;SDS011;13818;52.156;5.382;2024-02-16T07:21:04;3.67;;;1.42;;
26042;SDS011;13818;52.156;5.382;2024-02-16T07:23:31;3.25;;;1.65;;
26042;SDS011;13818;52.156;5.382;2024-02-16T07:25:57;3.08;;;1.30;;
26042;SDS011;13818;52.156;5.382;2024-02-16T07:28:24;2.50;;;1.63;;
26042;SDS011;13818;52.156;5.382;2024-02-16T07:30:52;4.82;;;1.55;;
26042;SDS011;13818;52.156;5.382;2024-02-16T07:33:20;3.53;;;1.73;;
26042;SDS011;13818;52.156;5.382;2024-02-16T07:35:49;3.58;;;1.50;;
26042;SDS011;13818;52.156;5.382;2024-02-16T07:38:16;5.05;;;2.10;;
26042;SDS011;13818;52.156;5.382;2024-02-16T07:40:42;6.03;;;1.85;;
26042;SDS011;13818;52.156;5.382;2024-02-16T07:43:10;4.00;;;1.73;;
26042;SDS011;13818;52.156;5.382;2024-02-16T07:45:37;3.00;;;1.75;;
26042;SDS011;13818;52.156;5.382;2024-02-16T07:48:04;3.30;;;1.27;;
26042;SDS011;13818;52.156;5.382;2024-02-16T07:50:34;2.38;;;1.45;;
26042;SDS011;13818;52.156;5.382;2024-02-16T07:53:00;5.25;;;2.05;;
26042;SDS011;13818;52.156;5.382;2024-02-16T07:55:27;3.08;;;1.98;;
26042;SDS011;13818;52.156;5.382;2024-02-16T07:57:54;3.17;;;1.27;;
26042;SDS011;13818;52.156;5.382;2024-02-16T08:00:20;2.85;;;1.88;;
26042;SDS011;13818;52.156;5.382;2024-02-16T08:02:49;4.88;;;1.50;;
26042;SDS011;13818;52.156;5.382;2024-02-16T08:05:16;3.47;;;1.55;;
26042;SDS011;13818;52.156;5.382;2024-02-16T08:07:45;3.35;;;1.50;;
26042;SDS011;13818;52.156;5.382;2024-02-16T08:10:13;3.15;;;1.60;;
26042;SDS011;13818;52.156;5.382;2024-02-16T08:12:39;3.83;;;1.60;;
26042;SDS011;13818;52.156;5.382;2024-02-16T08:15:07;4.57;;;1.40;;
26042;SDS011;13818;52.156;5.382;2024-02-16T08:17:35;3.90;;;1.80;;
26042;SDS011;13818;52.156;5.382;2024-02-16T08:20:02;4.00;;;1.55;;
26042;SDS011;13818;52.156;5.382;2024-02-16T08:22:30;3.85;;;1.50;;
26042;SDS011;13818;52.156;5.382;2024-02-16T08:24:58;7.68;;;2.08;;
26042;SDS011;13818;52.156;5.382;2024-02-16T08:29:52;1.60;;;1.00;;
26042;SDS011;13818;52.156;5.382;2024-02-16T08:32:18;3.53;;;1.58;;
26042;SDS011;13818;52.156;5.382;2024-02-16T08:34:45;6.43;;;1.67;;
26042;SDS011;13818;52.156;5.382;2024-02-16T08:37:13;2.85;;;1.75;;
26042;SDS011;13818;52.156;5.382;2024-02-16T08:39:40;3.53;;;1.75;;
26042;SDS011;13818;52.156;5.382;2024-02-16T08:42:08;4.60;;;1.60;;
26042;SDS011;13818;52.156;5.382;2024-02-16T08:44:36;4.38;;;1.38;;
26042;SDS011;13818;52.156;5.382;2024-02-16T08:47:04;3.17;;;1.67;;
26042;SDS011;13818;52.156;5.382;2024-02-16T08:49:31;3.72;;;1.67;;
26042;SDS011;13818;52.156;5.382;2024-02-16T08:51:57;4.45;;;1.52;;
26042;SDS011;13818;52.156;5.382;2024-02-16T08:54:24;5.28;;;1.42;;
26042;SDS011;13818;52.156;5.382;2024-02-16T08:56:51;5.32;;;1.92;;
26042;SDS011;13818;52.156;5.382;2024-02-16T08:59:19;3.53;;;1.88;;
26042;SDS011;13818;52.156;5.382;2024-02-16T09:01:45;5.32;;;1.75;;
26042;SDS011;13818;52.156;5.382;2024-02-16T09:04:12;9.32;;;2.30;;
26042;SDS011;13818;52.156;5.382;2024-02-16T09:06:39;5.30;;;1.63;;
26042;SDS011;13818;52.156;5.382;2024-02-16T09:09:06;4.57;;;1.65;;
26042;SDS011;13818;52.156;5.382;2024-02-16T09:11:33;3.35;;;1.88;;
26042;SDS011;13818;52.156;5.382;2024-02-16T09:14:00;5.93;;;2.22;;
26042;SDS011;13818;52.156;5.382;2024-02-16T09:16:29;6.68;;;1.60;;
26042;SDS011;13818;52.156;5.382;2024-02-16T09:18:57;3.60;;;2.20;;
26042;SDS011;13818;52.156;5.382;2024-02-16T09:21:24;4.82;;;1.92;;
26042;SDS011;13818;52.156;5.382;2024-02-16T09:23:53;3.70;;;1.67;;
26042;SDS011;13818;52.156;5.382;2024-02-16T09:26:23;4.82;;;1.85;;
26042;SDS011;13818;52.156;5.382;2024-02-16T09:28:51;6.80;;;2.08;;
26042;SDS011;13818;52.156;5.382;2024-02-16T09:31:19;4.57;;;2.03;;
26042;SDS011;13818;52.156;5.382;2024-02-16T09:33:47;3.97;;;1.80;;
26042;SDS011;13818;52.156;5.382;2024-02-16T09:36:17;4.72;;;2.35;;
26042;SDS011;13818;52.156;5.382;2024-02-16T09:38:43;5.03;;;2.17;;
26042;SDS011;13818;52.156;5.382;2024-02-16T09:41:10;4.75;;;2.17;;
26042;SDS011;13818;52.156;5.382;2024-02-16T09:43:37;5.80;;;2.20;;
26042;SDS011;13818;52.156;5.382;2024-02-16T09:46:04;5.57;;;2.28;;
26042;SDS011;13818;52.156;5.382;2024-02-16T09:48:31;4.65;;;2.30;;
26042;SDS011;13818;52.156;5.382;2024-02-16T09:50:59;4.93;;;2.63;;
26042;SDS011;13818;52.156;5.382;2024-02-16T09:53:26;2.90;;;1.95;;
26042;SDS011;13818;52.156;5.382;2024-02-16T09:55:54;3.47;;;1.88;;
26042;SDS011;13818;52.156;5.382;2024-02-16T09:58:21;5.53;;;2.33;;
26042;SDS011;13818;52.156;5.382;2024-02-16T10:00:49;5.88;;;3.03;;
26042;SDS011;13818;52.156;5.382;2024-02-16T10:03:28;4.38;;;2.22;;
26042;SDS011;13818;52.156;5.382;2024-02-16T10:06:05;3.92;;;1.92;;
26042;SDS011;13818;52.156;5.382;2024-02-16T10:08:32;5.32;;;2.40;;
26042;SDS011;13818;52.156;5.382;2024-02-16T10:11:04;4.32;;;1.85;;
26042;SDS011;13818;52.156;5.382;2024-02-16T10:13:30;4.57;;;2.40;;
26042;SDS011;13818;52.156;5.382;2024-02-16T10:16:04;2.97;;;1.95;;
26042;SDS011;13818;52.156;5.382;2024-02-16T10:18:37;4.38;;;2.05;;
26042;SDS011;13818;52.156;5.382;2024-02-16T10:21:06;7.55;;;2.33;;
26042;SDS011;13818;52.156;5.382;2024-02-16T10:23:34;4.95;;;2.20;;
26042;SDS011;13818;52.156;5.382;2024-02-16T10:26:01;7.32;;;2.30;;
26042;SDS011;13818;52.156;5.382;2024-02-16T10:28:28;8.52;;;2.33;;
26042;SDS011;13818;52.156;5.382;2024-02-16T10:30:57;4.72;;;2.25;;
26042;SDS011;13818;52.156;5.382;2024-02-16T10:33:26;3.58;;;2.05;;
26042;SDS011;13818;52.156;5.382;2024-02-16T10:35:54;6.60;;;2.40;;
26042;SDS011;13818;52.156;5.382;2024-02-16T10:38:24;4.80;;;2.92;;
26042;SDS011;13818;52.156;5.382;2024-02-16T10:40:52;3.45;;;2.28;;
26042;SDS011;13818;52.156;5.382;2024-02-16T10:43:19;7.97;;;2.67;;
26042;SDS011;13818;52.156;5.382;2024-02-16T10:45:48;5.88;;;2.55;;
26042;SDS011;13818;52.156;5.382;2024-02-16T10:48:18;5.32;;;2.42;;
26042;SDS011;13818;52.156;5.382;2024-02-16T10:50:45;4.25;;;3.05;;
26042;SDS011;13818;52.156;5.382;2024-02-16T10:53:14;8.70;;;2.95;;
26042;SDS011;13818;52.156;5.382;2024-02-16T10:55:49;9.80;;;3.20;;
26042;SDS011;13818;52.156;5.382;2024-02-16T10:58:16;5.55;;;3.05;;
26042;SDS011;13818;52.156;5.382;2024-02-16T11:00:50;10.20;;;3.20;;
26042;SDS011;13818;52.156;5.382;2024-02-16T11:03:17;11.00;;;3.20;;
26042;SDS011;13818;52.156;5.382;2024-02-16T11:05:48;7.75;;;3.00;;
26042;SDS011;13818;52.156;5.382;2024-02-16T11:08:15;7.57;;;3.20;;
26042;SDS011;13818;52.156;5.382;2024-02-16T11:10:54;6.50;;;3.05;;
26042;SDS011;13818;52.156;5.382;2024-02-16T11:13:22;3.88;;;2.45;;
26042;SDS011;13818;52.156;5.382;2024-02-16T11:18:22;7.28;;;2.80;;
26042;SDS011;13818;52.156;5.382;2024-02-16T11:20:49;11.05;;;4.10;;
26042;SDS011;13818;52.156;5.382;2024-02-16T11:23:16;6.95;;;3.95;;
26042;SDS011;13818;52.156;5.382;2024-02-16T11:25:49;7.30;;;3.08;;
26042;SDS011;13818;52.156;5.382;2024-02-16T11:28:18;7.97;;;3.17;;
26042;SDS011;13818;52.156;5.382;2024-02-16T11:30:45;6.95;;;3.08;;
26042;SDS011;13818;52.156;5.382;2024-02-16T11:33:12;9.02;;;3.33;;
26042;SDS011;13818;52.156;5.382;2024-02-16T11:35:39;5.05;;;2.80;;
26042;SDS011;13818;52.156;5.382;2024-02-16T11:38:05;6.15;;;3.20;;
26042;SDS011;13818;52.156;5.382;2024-02-16T11:40:33;8.52;;;3.55;;
26042;SDS011;13818;52.156;5.382;2024-02-16T11:43:00;9.85;;;3.47;;
26042;SDS011;13818;52.156;5.382;2024-02-16T11:45:33;6.78;;;3.60;;
26042;SDS011;13818;52.156;5.382;2024-02-16T11:48:04;6.10;;;3.63;;
26042;SDS011;13818;52.156;5.382;2024-02-16T11:50:32;8.55;;;3.42;;
26042;SDS011;13818;52.156;5.382;2024-02-16T11:52:58;7.00;;;3.78;;
26042;SDS011;13818;52.156;5.382;2024-02-16T11:55:25;7.22;;;3.35;;
26042;SDS011;13818;52.156;5.382;2024-02-16T11:57:53;7.10;;;3.60;;
26042;SDS011;13818;52.156;5.382;2024-02-16T12:00:21;8.75;;;3.42;;
26042;SDS011;13818;52.156;5.382;2024-02-16T12:02:58;7.90;;;3.42;;
26042;SDS011;13818;52.156;5.382;2024-02-16T12:05:25;5.93;;;3.28;;
26042;SDS011;13818;52.156;5.382;2024-02-16T12:07:51;7.38;;;3.45;;
26042;SDS011;13818;52.156;5.382;2024-02-16T12:10:18;5.90;;;3.13;;
26042;SDS011;13818;52.156;5.382;2024-02-16T12:12:47;10.48;;;3.70;;
26042;SDS011;13818;52.156;5.382;2024-02-16T12:15:13;6.88;;;3.47;;
26042;SDS011;13818;52.156;5.382;2024-02-16T12:17:42;9.75;;;4.05;;
26042;SDS011;13818;52.156;5.382;2024-02-16T12:20:12;5.45;;;2.95;;
26042;SDS011;13818;52.156;5.382;2024-02-16T12:22:39;7.25;;;3.42;;
26042;SDS011;13818;52.156;5.382;2024-02-16T12:25:06;5.43;;;2.42;;
26042;SDS011;13818;52.156;5.382;2024-02-16T12:27:34;6.68;;;3.20;;
26042;SDS011;13818;52.156;5.382;2024-02-16T12:30:01;9.02;;;3.13;;
26042;SDS011;13818;52.156;5.382;2024-02-16T12:32:28;3.42;;;1.50;;
26042;SDS011;13818;52.156;5.382;2024-02-16T12:34:55;3.13;;;1.65;;
26042;SDS011;13818;52.156;5.382;2024-02-16T12:37:24;2.33;;;1.33;;
26042;SDS011;13818;52.156;5.382;2024-02-16T12:39:50;4.35;;;1.67;;
26042;SDS011;13818;52.156;5.382;2024-02-16T12:42:17;3.97;;;1.52;;
26042;SDS011;13818;52.156;5.382;2024-02-16T12:44:43;3.78;;;1.95;;
26042;SDS011;13818;52.156;5.382;2024-02-16T12:47:10;2.13;;;1.55;;
26042;SDS011;13818;52.156;5.382;2024-02-16T12:49:37;3.67;;;1.77;;
26042;SDS011;13818;52.156;5.382;2024-02-16T12:52:04;2.80;;;1.20;;
26042;SDS011;13818;52.156;5.382;2024-02-16T12:54:32;2.58;;;1.33;;
26042;SDS011;13818;52.156;5.382;2024-02-16T12:56:59;1.88;;;1.30;;
26042;SDS011;13818;52.156;5.382;2024-02-16T12:59:26;2.35;;;1.45;;
26042;SDS011;13818;52.156;5.382;2024-02-16T13:01:53;3.85;;;2.28;;
26042;SDS011;13818;52.156;5.382;2024-02-16T13:04:19;2.25;;;1.30;;
26042;SDS011;13818;52.156;5.382;2024-02-16T13:09:14;3.40;;;1.70;;
26042;SDS011;13818;52.156;5.382;2024-02-16T13:11:42;2.88;;;1.65;;
26042;SDS011;13818;52.156;5.382;2024-02-16T13:14:10;2.92;;;1.58;;
26042;SDS011;13818;52.156;5.382;2024-02-16T13:16:36;3.63;;;1.63;;
26042;SDS011;13818;52.156;5.382;2024-02-16T13:19:03;2.70;;;1.20;;
26042;SDS011;13818;52.156;5.382;2024-02-16T13:21:29;2.28;;;1.45;;
26042;SDS011;13818;52.156;5.382;2024-02-16T13:23:56;3.03;;;1.42;;
26042;SDS011;13818;52.156;5.382;2024-02-16T13:26:22;1.40;;;1.10;;
26042;SDS011;13818;52.156;5.382;2024-02-16T13:28:50;4.70;;;1.67;;
26042;SDS011;13818;52.156;5.382;2024-02-16T13:33:44;5.03;;;1.38;;
26042;SDS011;13818;52.156;5.382;2024-02-16T13:36:10;3.53;;;1.55;;
26042;SDS011;13818;52.156;5.382;2024-02-16T13:38:37;3.50;;;1.30;;
26042;SDS011;13818;52.156;5.382;2024-02-16T13:41:04;3.05;;;1.52;;
26042;SDS011;13818;52.156;5.382;2024-02-16T13:43:31;3.78;;;1.20;;
26042;SDS011;13818;52.156;5.382;2024-02-16T13:45:59;5.57;;;1.70;;
26042;SDS011;13818;52.156;5.382;2024-02-16T13:48:25;2.10;;;0.95;;
26042;SDS011;13818;52.156;5.382;2024-02-16T13:50:53;2.33;;;1.20;;
26042;SDS011;13818;52.156;5.382;2024-02-16T13:53:20;1.73;;;0.95;;
26042;SDS011;13818;52.156;5.382;2024-02-16T13:55:48;2.55;;;1.30;;
26042;SDS011;13818;52.156;5.382;2024-02-16T13:58:15;1.83;;;1.00;;
26042;SDS011;13818;52.156;5.382;2024-02-16T14:00:42;1.60;;;0.90;;
26042;SDS011;13818;52.156;5.382;2024-02-16T14:03:10;1.48;;;0.90;;
26042;SDS011;13818;52.156;5.382;2024-02-16T14:05:40;1.38;;;0.60;;
26042;SDS011;13818;52.156;5.382;2024-02-16T14:08:07;5.30;;;1.23;;
26042;SDS011;13818;52.156;5.382;2024-02-16T14:10:36;2.25;;;1.23;;
26042;SDS011;13818;52.156;5.382;2024-02-16T14:13:03;4.78;;;1.65;;
26042;SDS011;13818;52.156;5.382;2024-02-16T14:15:29;2.33;;;1.20;;
26042;SDS011;13818;52.156;5.382;2024-02-16T14:17:56;2.58;;;1.38;;
26042;SDS011;13818;52.156;5.382;2024-02-16T14:20:24;1.88;;;1.27;;
26042;SDS011;13818;52.156;5.382;2024-02-16T14:22:51;2.28;;;1.05;;
26042;SDS011;13818;52.156;5.382;2024-02-16T14:25:18;2.72;;;1.17;;
26042;SDS011;13818;52.156;5.382;2024-02-16T14:27:44;2.08;;;1.33;;
26042;SDS011;13818;52.156;5.382;2024-02-16T14:30:11;2.88;;;1.50;;
26042;SDS011;13818;52.156;5.382;2024-02-16T14:32:39;3.45;;;1.67;;
26042;SDS011;13818;52.156;5.382;2024-02-16T14:35:06;3.72;;;1.83;;
26042;SDS011;13818;52.156;5.382;2024-02-16T14:37:34;2.50;;;1.38;;
26042;SDS011;13818;52.156;5.382;2024-02-16T14:40:01;5.03;;;1.75;;
26042;SDS011;13818;52.156;5.382;2024-02-16T14:42:30;2.75;;;1.50;;
26042;SDS011;13818;52.156;5.382;2024-02-16T14:44:56;2.65;;;1.70;;
26042;SDS011;13818;52.156;5.382;2024-02-16T14:47:23;2.75;;;1.35;;
26042;SDS011;13818;52.156;5.382;2024-02-16T14:49:49;4.00;;;1.70;;
26042;SDS011;13818;52.156;5.382;2024-02-16T14:52:16;3.60;;;1.83;;
26042;SDS011;13818;52.156;5.382;2024-02-16T14:54:44;2.20;;;1.40;;
26042;SDS011;13818;52.156;5.382;2024-02-16T14:59:37;3.25;;;1.25;;
26042;SDS011;13818;52.156;5.382;2024-02-16T15:02:04;2.90;;;1.20;;
26042;SDS011;13818;52.156;5.382;2024-02-16T15:04:30;2.45;;;1.45;;
26042;SDS011;13818;52.156;5.382;2024-02-16T15:06:57;3.42;;;1.77;;
26042;SDS011;13818;52.156;5.382;2024-02-16T15:09:23;5.70;;;2.05;;
26042;SDS011;13818;52.156;5.382;2024-02-16T15:11:51;5.22;;;2.05;;
26042;SDS011;13818;52.156;5.382;2024-02-16T15:14:18;5.93;;;2.50;;
26042;SDS011;13818;52.156;5.382;2024-02-16T15:16:44;5.93;;;2.10;;